createdAt,value
2023-02-02T00:00:38.443Z,99335.52
2023-02-02T00:03:11.132Z,99329.23
2023-02-02T00:05:49.924Z,99325.28
2023-02-02T00:08:21.801Z,99323.48
2023-02-02T00:10:52.351Z,99340.94
2023-02-02T00:13:22.861Z,99318.68
2023-02-02T00:15:54.789Z,99322.31
2023-02-02T00:18:25.267Z,99332.88
2023-02-02T00:20:55.769Z,99333.52
2023-02-02T00:23:26.221Z,99313.63
2023-02-02T00:25:56.671Z,99312.06
2023-02-02T00:28:27.159Z,99314.27
2023-02-02T00:30:57.604Z,99314.55
2023-02-02T00:33:29.327Z,99323.97
2023-02-02T00:35:59.883Z,99315.23
2023-02-02T00:38:32.591Z,99309.49
2023-02-02T00:41:03.109Z,99315.45
2023-02-02T00:43:33.773Z,99321.74
2023-02-02T00:46:05.586Z,99319.53
2023-02-02T00:48:36.126Z,99318.53
2023-02-02T00:51:06.750Z,99315.27
2023-02-02T00:53:37.256Z,99316.19
2023-02-02T00:56:08.003Z,99326.25
2023-02-02T00:58:38.555Z,99316.66
2023-02-02T01:01:18.191Z,99326.05
2023-02-02T01:03:49.330Z,99304.45
2023-02-02T01:06:20.088Z,99303.03
2023-02-02T01:08:52.054Z,99301.44
2023-02-02T01:11:22.878Z,99303.23
2023-02-02T01:13:53.374Z,99301.77
2023-02-02T01:16:25.065Z,99293.91
2023-02-02T01:18:55.577Z,99292.74
2023-02-02T01:21:26.036Z,99287.25
2023-02-02T01:23:56.523Z,99282.62
2023-02-02T01:26:27.053Z,99287.53
2023-02-02T01:28:57.574Z,99297.79
2023-02-02T01:31:28.224Z,99294.63
2023-02-02T01:33:58.698Z,99274.84
2023-02-02T01:36:29.229Z,99284.47
2023-02-02T01:38:59.707Z,99284.69
2023-02-02T01:41:31.419Z,99277.05
2023-02-02T01:44:04.441Z,99267.23
2023-02-02T01:46:38.016Z,99264.89
2023-02-02T01:49:14.389Z,99254.97
2023-02-02T01:51:57.925Z,99247.91
2023-02-02T01:54:37.217Z,99247.28
2023-02-02T01:57:13.229Z,99244.84
2023-02-02T01:59:45.122Z,99247.93
2023-02-02T02:02:15.886Z,99243.00
2023-02-02T02:04:48.640Z,99234.55
2023-02-02T02:07:19.272Z,99227.48
2023-02-02T02:09:49.981Z,99234.05
2023-02-02T02:12:20.666Z,99225.85
2023-02-02T02:15:10.584Z,99238.49
2023-02-02T02:17:55.762Z,99219.11
2023-02-02T02:20:56.095Z,99218.84
2023-02-02T02:24:02.595Z,99220.47
2023-02-02T02:26:46.259Z,99209.94
2023-02-02T02:29:36.108Z,99204.64
2023-02-02T02:32:18.529Z,99200.95
2023-02-02T02:35:07.185Z,99229.06
2023-02-02T02:37:49.500Z,99200.54
2023-02-02T02:40:37.807Z,99186.25
2023-02-02T02:43:22.620Z,99183.35
2023-02-02T02:45:55.216Z,99180.69
2023-02-02T02:48:26.606Z,99180.86
2023-02-02T02:51:11.035Z,99174.27
2023-02-02T02:53:44.940Z,99182.61
2023-02-02T02:56:29.117Z,99167.33
2023-02-02T02:59:12.802Z,99167.79
2023-02-02T03:02:06.233Z,99150.77
2023-02-02T03:04:45.867Z,99158.95
2023-02-02T03:07:33.607Z,99155.16
2023-02-02T03:10:12.042Z,99148.76
2023-02-02T03:12:55.324Z,99128.30
2023-02-02T03:15:28.081Z,99145.09
2023-02-02T03:18:02.552Z,99142.52
2023-02-02T03:20:36.624Z,99123.50
2023-02-02T03:23:08.119Z,99126.91
2023-02-02T03:25:40.509Z,99137.74
2023-02-02T03:28:13.858Z,99133.95
2023-02-02T03:30:47.937Z,99124.80
2023-02-02T03:33:21.867Z,99119.50
2023-02-02T03:35:55.232Z,99126.20
2023-02-02T03:38:28.444Z,99111.55
2023-02-02T03:40:59.951Z,99104.41
2023-02-02T03:43:31.224Z,99077.62
2023-02-02T03:46:06.037Z,99080.92
2023-02-02T03:48:43.175Z,99072.20
2023-02-02T03:51:17.178Z,99056.79
2023-02-02T03:53:51.139Z,99070.14
2023-02-02T03:56:23.264Z,99060.86
2023-02-02T03:58:56.298Z,99061.92
2023-02-02T04:01:34.568Z,99059.80
2023-02-02T04:04:07.703Z,99061.69
2023-02-02T04:06:39.472Z,99081.45
2023-02-02T04:09:12.248Z,99064.08
2023-02-02T04:11:44.216Z,99058.28
2023-02-02T04:14:16.727Z,99043.84
2023-02-02T04:16:49.608Z,99046.27
2023-02-02T04:19:21.912Z,99056.59
2023-02-02T04:21:54.833Z,99056.36
2023-02-02T04:24:28.436Z,99050.16
2023-02-02T04:27:01.435Z,99048.17
2023-02-02T04:29:33.944Z,99048.97
2023-02-02T04:32:05.799Z,99038.41
2023-02-02T04:34:38.851Z,99067.80
2023-02-02T04:37:12.870Z,99042.98
2023-02-02T04:39:45.139Z,99043.17
2023-02-02T04:42:19.274Z,99042.78
2023-02-02T04:44:52.132Z,99047.28
2023-02-02T04:47:24.713Z,99042.98
2023-02-02T04:49:55.977Z,99042.67
2023-02-02T04:52:30.678Z,99033.33
2023-02-02T04:55:05.417Z,99044.62
2023-02-02T04:57:36.779Z,99042.12
2023-02-02T05:00:11.355Z,99031.56
2023-02-02T05:02:44.863Z,99036.73
2023-02-02T05:05:17.789Z,99037.81
2023-02-02T05:07:50.666Z,99051.32
2023-02-02T05:10:25.757Z,99040.83
2023-02-02T05:12:59.361Z,99037.93
2023-02-02T05:15:31.875Z,99040.95
2023-02-02T05:18:04.850Z,99035.83
2023-02-02T05:20:40.002Z,99044.08
2023-02-02T05:23:11.046Z,99044.94
2023-02-02T05:25:46.188Z,99048.30
2023-02-02T05:28:21.339Z,99040.77
2023-02-02T05:30:53.246Z,99059.22
2023-02-02T05:33:27.055Z,99055.94
2023-02-02T05:35:59.471Z,99053.42
2023-02-02T05:38:31.653Z,99062.73
2023-02-02T05:41:11.093Z,99056.09
2023-02-02T05:43:42.350Z,99066.11
2023-02-02T05:46:22.387Z,99067.98
2023-02-02T05:48:59.087Z,99077.37
2023-02-02T05:51:35.169Z,99086.13
2023-02-02T05:54:05.798Z,99090.31
2023-02-02T05:56:38.388Z,99090.50
2023-02-02T05:59:10.595Z,99107.91
2023-02-02T06:01:42.055Z,99112.42
2023-02-02T06:04:16.532Z,99110.67
2023-02-02T06:06:48.951Z,99129.83
2023-02-02T06:09:20.304Z,99129.38
2023-02-02T06:11:52.670Z,99138.76
2023-02-02T06:14:25.717Z,99141.22
2023-02-02T06:16:57.765Z,99151.22
2023-02-02T06:19:29.689Z,99148.58
2023-02-02T06:22:01.759Z,99160.14
2023-02-02T06:24:35.464Z,99170.47
2023-02-02T06:27:08.504Z,99178.65
2023-02-02T06:29:42.673Z,99174.67
2023-02-02T06:32:14.382Z,99193.69
2023-02-02T06:34:47.631Z,99193.87
2023-02-02T06:37:20.398Z,99204.27
2023-02-02T06:39:56.556Z,99222.28
2023-02-02T06:42:31.809Z,99221.72
2023-02-02T06:45:06.577Z,99235.48
2023-02-02T06:47:40.213Z,99251.77
2023-02-02T06:50:13.856Z,99260.75
2023-02-02T06:52:54.105Z,99267.37
2023-02-02T06:55:26.647Z,99264.02
2023-02-02T06:58:06.654Z,99283.70
2023-02-02T07:00:39.113Z,99285.56
2023-02-02T07:03:13.940Z,99278.56
2023-02-02T07:05:45.485Z,99303.42
2023-02-02T07:08:20.348Z,99304.48
2023-02-02T07:11:13.509Z,99319.22
2023-02-02T07:13:27.477Z,99326.20
2023-02-02T07:16:00.635Z,99327.27
2023-02-02T07:18:33.152Z,99331.42
2023-02-02T07:21:08.852Z,99343.28
2023-02-02T07:23:42.802Z,99348.75
2023-02-02T07:26:14.876Z,99343.89
2023-02-02T07:28:47.399Z,99366.16
2023-02-02T07:31:23.881Z,99372.90
2023-02-02T07:33:55.556Z,99370.08
2023-02-02T07:36:27.441Z,99385.73
2023-02-02T07:38:59.918Z,99396.86
2023-02-02T07:41:30.781Z,99398.00
2023-02-02T07:44:01.877Z,99397.51
2023-02-02T07:46:32.827Z,99405.04
2023-02-02T07:49:03.393Z,99407.20
2023-02-02T07:51:33.887Z,99418.36
2023-02-02T07:54:04.430Z,99431.02
2023-02-02T07:56:35.260Z,99423.59
2023-02-02T07:59:05.719Z,99437.70
2023-02-02T08:01:36.243Z,99443.98
2023-02-02T08:04:06.830Z,99448.47
2023-02-02T08:06:41.563Z,99447.84
2023-02-02T08:09:12.233Z,99462.57
2023-02-02T08:11:43.870Z,99449.95
2023-02-02T08:14:14.966Z,99450.36
2023-02-02T08:16:45.438Z,99462.83
2023-02-02T08:19:15.911Z,99470.61
2023-02-02T08:21:46.404Z,99475.47
2023-02-02T08:24:18.039Z,99470.66
2023-02-02T08:26:48.501Z,99479.33
2023-02-02T08:29:18.970Z,99483.83
2023-02-02T08:31:50.601Z,99495.66
2023-02-02T08:34:21.099Z,99509.11
2023-02-02T08:36:51.542Z,99508.63
2023-02-02T08:39:22.811Z,99523.73
2023-02-02T08:41:54.718Z,99516.70
2023-02-02T08:44:26.976Z,99519.61
2023-02-02T08:46:59.165Z,99512.65
2023-02-02T08:49:30.912Z,99534.82
2023-02-02T08:52:01.463Z,99535.98
2023-02-02T08:54:31.938Z,99545.23
2023-02-02T08:57:02.401Z,99543.66
2023-02-02T08:59:32.855Z,99553.41
2023-02-02T09:02:03.283Z,99550.52
2023-02-02T09:04:33.755Z,99569.06
2023-02-02T09:07:05.317Z,99562.50
2023-02-02T09:09:35.803Z,99577.08
2023-02-02T09:12:06.360Z,99585.08
2023-02-02T09:14:36.925Z,99577.84
2023-02-02T09:17:07.389Z,99589.30
2023-02-02T09:19:37.863Z,99594.98
2023-02-02T09:22:08.339Z,99606.81
2023-02-02T09:24:39.742Z,99613.85
2023-02-02T09:27:10.215Z,99613.19
2023-02-02T09:29:40.779Z,99623.73
2023-02-02T09:32:11.467Z,99627.16
2023-02-02T09:34:41.966Z,99635.06
2023-02-02T09:37:12.440Z,99655.60
2023-02-02T09:39:43.023Z,99668.26
2023-02-02T09:42:34.493Z,99670.97
2023-02-02T09:45:20.034Z,99676.47
2023-02-02T09:47:55.824Z,99698.95
2023-02-02T09:50:32.251Z,99691.94
2023-02-02T09:53:14.272Z,99701.25
2023-02-02T09:55:47.626Z,99708.22
2023-02-02T09:58:24.141Z,99722.09
2023-02-02T10:01:15.762Z,99718.41
2023-02-02T10:04:01.736Z,99735.78
2023-02-02T10:06:38.147Z,99731.70
2023-02-02T10:09:28.097Z,99742.93
2023-02-02T10:12:08.828Z,99746.44
2023-02-02T10:14:42.567Z,99744.23
2023-02-02T10:17:44.712Z,99761.46
2023-02-02T10:20:34.949Z,99768.17
2023-02-02T10:23:29.512Z,99776.85
2023-02-02T10:26:02.889Z,99785.95
2023-02-02T10:28:57.324Z,99789.28
2023-02-02T10:31:33.705Z,99789.99
2023-02-02T10:34:23.654Z,99794.08
2023-02-02T10:37:13.310Z,99796.63
2023-02-02T10:40:01.632Z,99810.73
2023-02-02T10:42:53.064Z,99824.60
2023-02-02T10:45:24.051Z,99822.66
2023-02-02T10:47:54.488Z,99826.56
2023-02-02T10:50:26.238Z,99833.42
2023-02-02T10:52:59.835Z,99847.67
2023-02-02T10:55:44.823Z,99846.33
2023-02-02T10:58:18.258Z,99856.23
2023-02-02T11:00:54.806Z,99859.01
2023-02-02T11:03:28.554Z,99866.98
2023-02-02T11:06:19.733Z,99866.53
2023-02-02T11:08:59.925Z,99867.48
2023-02-02T11:11:36.278Z,99879.34
2023-02-02T11:14:12.373Z,99878.80
2023-02-02T11:16:46.090Z,99882.24
2023-02-02T11:19:22.571Z,99887.06
2023-02-02T11:21:57.778Z,99892.38
2023-02-02T11:24:50.413Z,99895.77
2023-02-02T11:27:29.481Z,99893.73
2023-02-02T11:30:02.876Z,99906.76
2023-02-02T11:32:35.453Z,99902.14
2023-02-02T11:35:11.281Z,99907.50
2023-02-02T11:37:56.470Z,99917.92
2023-02-02T11:40:36.067Z,99920.45
2023-02-02T11:43:09.679Z,99931.38
2023-02-02T11:45:42.932Z,99933.52
2023-02-02T11:48:22.051Z,99938.59
2023-02-02T11:50:55.062Z,99947.52
2023-02-02T11:53:31.364Z,99950.73
2023-02-02T11:56:04.684Z,99955.04
2023-02-02T11:58:52.971Z,99960.78
2023-02-02T12:01:26.376Z,99948.48
2023-02-02T12:03:59.621Z,99961.86
2023-02-02T12:06:41.147Z,99964.03
2023-02-02T12:09:17.159Z,99970.73
2023-02-02T12:12:05.632Z,99968.59
2023-02-02T12:14:41.772Z,99971.67
2023-02-02T12:17:33.248Z,99984.92
2023-02-02T12:20:25.026Z,99977.99
2023-02-02T12:23:17.901Z,99990.36
2023-02-02T12:26:10.635Z,99993.73
2023-02-02T12:28:50.155Z,99993.06
2023-02-02T12:31:29.618Z,99992.92
2023-02-02T12:34:09.551Z,100004.88
2023-02-02T12:37:11.433Z,100009.00
2023-02-02T12:40:13.749Z,100013.19
2023-02-02T12:42:53.391Z,100016.03
2023-02-02T12:45:41.855Z,100026.21
2023-02-02T12:48:18.026Z,100032.12
2023-02-02T12:50:54.177Z,100029.70
2023-02-02T12:53:42.481Z,100040.02
2023-02-02T12:56:29.221Z,100037.51
2023-02-02T12:59:14.543Z,100037.77
2023-02-02T13:01:53.550Z,100033.69
2023-02-02T13:04:45.183Z,100051.15
2023-02-02T13:07:30.555Z,100055.53
2023-02-02T13:10:08.505Z,100066.56
2023-02-02T13:12:46.083Z,100065.02
2023-02-02T13:15:23.791Z,100071.74
2023-02-02T13:17:56.141Z,100078.15
2023-02-02T13:20:39.254Z,100073.12
2023-02-02T13:23:32.404Z,100077.37
2023-02-02T13:26:19.259Z,100078.70
2023-02-02T13:29:00.127Z,100087.44
2023-02-02T13:31:37.113Z,100102.81
2023-02-02T13:34:20.690Z,100098.30
2023-02-02T13:37:01.682Z,100108.76
2023-02-02T13:39:43.722Z,100106.05
2023-02-02T13:42:38.125Z,100113.41
2023-02-02T13:45:20.414Z,100122.48
2023-02-02T13:47:54.946Z,100123.46
2023-02-02T13:50:29.557Z,100126.47
2023-02-02T13:53:27.175Z,100129.39
2023-02-02T13:56:22.008Z,100128.91
2023-02-02T13:58:55.391Z,100146.25
2023-02-02T14:01:26.890Z,100146.91
2023-02-02T14:04:00.790Z,100155.04
2023-02-02T14:06:34.177Z,100160.62
2023-02-02T14:09:08.223Z,100176.75
2023-02-02T14:11:45.500Z,100172.30
2023-02-02T14:14:34.796Z,100184.45
2023-02-02T14:17:10.881Z,100195.23
2023-02-02T14:19:47.057Z,100209.86
2023-02-02T14:22:20.336Z,100209.79
2023-02-02T14:24:55.137Z,100202.89
2023-02-02T14:27:34.967Z,100215.65
2023-02-02T14:30:14.383Z,100225.19
2023-02-02T14:32:46.068Z,100239.63
2023-02-02T14:35:28.438Z,100234.42
2023-02-02T14:38:01.995Z,100242.22
2023-02-02T14:40:44.076Z,100256.61
2023-02-02T14:43:43.669Z,100266.06
2023-02-02T14:46:25.905Z,100271.02
2023-02-02T14:49:00.888Z,100282.99
2023-02-02T14:51:36.052Z,100297.88
2023-02-02T14:54:11.179Z,100298.31
2023-02-02T14:56:50.715Z,100299.95
2023-02-02T14:59:27.683Z,100310.51
2023-02-02T15:02:02.652Z,100316.30
2023-02-02T15:04:33.264Z,100324.48
2023-02-02T15:07:23.557Z,100323.86
2023-02-02T15:09:56.809Z,100336.83
2023-02-02T15:12:46.542Z,100340.71
2023-02-02T15:15:30.306Z,100348.67
2023-02-02T15:18:11.139Z,100355.31
2023-02-02T15:20:50.377Z,100366.60
2023-02-02T15:23:35.790Z,100371.89
2023-02-02T15:26:11.947Z,100364.44
2023-02-02T15:28:55.992Z,100386.08
2023-02-02T15:31:35.249Z,100394.67
2023-02-02T15:34:17.739Z,100397.70
2023-02-02T15:36:51.697Z,100403.06
2023-02-02T15:39:37.316Z,100407.84
2023-02-02T15:42:30.563Z,100421.25
2023-02-02T15:45:01.276Z,100429.44
2023-02-02T15:47:37.324Z,100432.34
2023-02-02T15:50:22.104Z,100439.89
2023-02-02T15:52:54.960Z,100441.33
2023-02-02T15:55:34.675Z,100457.71
2023-02-02T15:58:06.870Z,100455.70
2023-02-02T16:00:38.327Z,100464.62
2023-02-02T16:03:14.970Z,100473.22
2023-02-02T16:05:48.397Z,100481.20
2023-02-02T16:08:21.748Z,100493.03
2023-02-02T16:11:08.312Z,100493.88
2023-02-02T16:13:42.843Z,100504.69
2023-02-02T16:16:28.197Z,100508.81
2023-02-02T16:19:07.593Z,100526.05
2023-02-02T16:21:41.079Z,100528.69
2023-02-02T16:24:23.394Z,100535.69
2023-02-02T16:26:56.755Z,100555.01
2023-02-02T16:29:28.422Z,100560.21
2023-02-02T16:31:59.211Z,100559.70
2023-02-02T16:34:46.897Z,100574.53
2023-02-02T16:37:28.868Z,100587.42
2023-02-02T16:40:21.321Z,100595.70
2023-02-02T16:43:09.991Z,100595.91
2023-02-02T16:45:59.643Z,100591.06
2023-02-02T16:48:36.144Z,100612.41
2023-02-02T16:51:21.780Z,100613.70
2023-02-02T16:54:10.340Z,100622.63
2023-02-02T16:56:44.055Z,100630.94
2023-02-02T16:59:26.681Z,100642.38
2023-02-02T17:02:00.282Z,100643.20
2023-02-02T17:04:33.406Z,100643.23
2023-02-02T17:07:09.628Z,100652.20
2023-02-02T17:09:45.386Z,100656.16
2023-02-02T17:12:33.203Z,100669.23
2023-02-02T17:15:04.083Z,100655.31
2023-02-02T17:17:35.836Z,100674.75
2023-02-02T17:20:07.141Z,100686.66
2023-02-02T17:22:44.699Z,100690.84
2023-02-02T17:25:20.906Z,100696.25
2023-02-02T17:27:51.495Z,100703.88
2023-02-02T17:30:22.431Z,100708.82
2023-02-02T17:32:53.023Z,100721.95
2023-02-02T17:35:26.904Z,100729.17
2023-02-02T17:37:59.121Z,100732.15
2023-02-02T17:40:31.920Z,100740.73
2023-02-02T17:43:03.282Z,100735.58
2023-02-02T17:45:38.817Z,100747.72
2023-02-02T17:48:12.440Z,100743.48
2023-02-02T17:50:44.206Z,100758.03
2023-02-02T17:53:16.891Z,100764.45
2023-02-02T17:55:49.894Z,100767.05
2023-02-02T17:58:20.360Z,100776.33
2023-02-02T18:00:54.940Z,100780.90
2023-02-02T18:03:35.490Z,100791.72
2023-02-02T18:06:06.174Z,100787.08
2023-02-02T18:08:36.676Z,100797.66
2023-02-02T18:11:08.305Z,100798.98
2023-02-02T18:13:38.804Z,100803.59
2023-02-02T18:16:10.673Z,100816.17
2023-02-02T18:18:41.804Z,100820.50
2023-02-02T18:21:14.317Z,100833.83
2023-02-02T18:23:46.279Z,100841.19
2023-02-02T18:26:21.889Z,100840.49
2023-02-02T18:28:52.467Z,100850.51
2023-02-02T18:31:25.565Z,100856.80
2023-02-02T18:33:56.211Z,100867.92
2023-02-02T18:36:28.200Z,100854.47
2023-02-02T18:38:58.679Z,100857.53
2023-02-02T18:41:29.140Z,100862.62
2023-02-02T18:43:59.591Z,100863.08
2023-02-02T18:46:31.651Z,100866.83
2023-02-02T18:49:02.166Z,100868.73
2023-02-02T18:51:35.852Z,100872.20
2023-02-02T18:54:07.549Z,100796.83
2023-02-02T18:56:41.905Z,100882.70
2023-02-02T18:59:12.747Z,100884.77
2023-02-02T19:01:44.100Z,100877.60
2023-02-02T19:04:14.657Z,100873.23
2023-02-02T19:07:04.897Z,100896.85
2023-02-02T19:09:38.347Z,100893.55
2023-02-02T19:12:16.659Z,100898.00
2023-02-02T19:14:47.458Z,100900.14
2023-02-02T19:17:22.520Z,100897.45
2023-02-02T19:19:55.660Z,100906.79
2023-02-02T19:22:28.300Z,100908.16
2023-02-02T19:24:59.574Z,100913.54
2023-02-02T19:27:31.927Z,100922.35
2023-02-02T19:30:05.840Z,100925.53
2023-02-02T19:32:35.275Z,100943.56
2023-02-02T19:35:08.734Z,100939.61
2023-02-02T19:37:42.218Z,100953.85
2023-02-02T19:40:15.653Z,100952.69
2023-02-02T19:42:49.276Z,100953.77
2023-02-02T19:45:31.858Z,100963.27
2023-02-02T19:48:15.765Z,100964.73
2023-02-02T19:50:47.375Z,100969.32
2023-02-02T19:53:39.120Z,100970.18
2023-02-02T19:56:30.490Z,100980.33
2023-02-02T19:59:01.111Z,100971.38
2023-02-02T20:01:35.911Z,100981.70
2023-02-02T20:04:10.565Z,100980.16
2023-02-02T20:06:56.688Z,100977.88
2023-02-02T20:09:20.540Z,100975.00
2023-02-02T20:11:55.893Z,100969.45
2023-02-02T20:14:30.412Z,100983.02
2023-02-02T20:17:04.137Z,100975.84
2023-02-02T20:19:40.572Z,100974.98
2023-02-02T20:22:29.435Z,100969.41
2023-02-02T20:25:05.821Z,100980.97
2023-02-02T20:27:38.882Z,100988.56
2023-02-02T20:30:24.865Z,100996.91
2023-02-02T20:33:02.488Z,101002.20
2023-02-02T20:35:38.795Z,101014.05
2023-02-02T20:38:24.448Z,101021.13
2023-02-02T20:40:54.919Z,101024.05
2023-02-02T20:43:25.612Z,101025.52
2023-02-02T20:45:56.195Z,101016.22
2023-02-02T20:48:27.855Z,101019.53
2023-02-02T20:50:58.548Z,101024.87
2023-02-02T20:53:29.129Z,101028.86
2023-02-02T20:56:01.392Z,101028.69
2023-02-02T20:58:32.255Z,101033.91
2023-02-02T21:01:04.368Z,101034.30
2023-02-02T21:03:34.929Z,101044.14
2023-02-02T21:06:05.465Z,101050.16
2023-02-02T21:08:35.964Z,101046.58
2023-02-02T21:11:06.635Z,101051.73
2023-02-02T21:13:37.185Z,101061.78
2023-02-02T21:16:08.409Z,101060.67
2023-02-02T21:18:40.393Z,101052.16
2023-02-02T21:21:14.484Z,101047.00
2023-02-02T21:23:47.637Z,101055.23
2023-02-02T21:26:22.465Z,101047.48
2023-02-02T21:28:53.171Z,101052.61
2023-02-02T21:31:24.074Z,101054.95
2023-02-02T21:33:56.237Z,101060.55
2023-02-02T21:36:39.765Z,101062.19
2023-02-02T21:39:16.845Z,101067.78
2023-02-02T21:41:47.372Z,101069.53
2023-02-02T21:44:20.739Z,101086.33
2023-02-02T21:46:53.536Z,101086.41
2023-02-02T21:49:29.878Z,101094.83
2023-02-02T21:54:34.154Z,101095.46
2023-02-02T21:57:06.448Z,101094.36
2023-02-02T21:59:37.758Z,101095.91
2023-02-02T22:02:23.498Z,101091.42
2023-02-02T22:04:54.480Z,101091.33
2023-02-02T22:07:26.450Z,101079.80
2023-02-02T22:09:57.192Z,101079.28
2023-02-02T22:12:28.718Z,101080.45
2023-02-02T22:15:02.018Z,101093.52
2023-02-02T22:17:44.628Z,101087.79
2023-02-02T22:20:21.163Z,101084.59
2023-02-02T22:22:53.131Z,101088.93
2023-02-02T22:25:29.591Z,101083.23
2023-02-02T22:28:01.924Z,101077.78
2023-02-02T22:30:38.367Z,101088.28
2023-02-02T22:33:11.598Z,101089.36
2023-02-02T22:35:43.046Z,101081.94
2023-02-02T22:38:19.954Z,101077.53
2023-02-02T22:40:51.727Z,101084.22
2023-02-02T22:43:23.186Z,101084.92
2023-02-02T22:45:55.007Z,101093.66
2023-02-02T22:48:25.482Z,101102.22
2023-02-02T22:50:55.951Z,101098.96
2023-02-02T22:53:26.425Z,101101.85
2023-02-02T22:55:57.069Z,101107.69
2023-02-02T22:58:28.715Z,101120.53
2023-02-02T23:00:59.213Z,101114.66
2023-02-02T23:03:30.009Z,101116.67
2023-02-02T23:06:00.487Z,101117.41
2023-02-02T23:08:31.008Z,101117.29
2023-02-02T23:11:01.675Z,101112.78
2023-02-02T23:13:32.146Z,101108.13
2023-02-02T23:16:02.751Z,101117.78
2023-02-02T23:18:33.361Z,101115.16
2023-02-02T23:21:03.815Z,101109.20
2023-02-02T23:23:34.325Z,101108.61
2023-02-02T23:26:05.970Z,101116.80
2023-02-02T23:28:36.430Z,101121.70
2023-02-02T23:31:07.384Z,101125.22
2023-02-02T23:33:37.867Z,101121.42
2023-02-02T23:36:08.803Z,101123.08
2023-02-02T23:38:39.348Z,101133.16
2023-02-02T23:41:09.814Z,101133.89
